Time;durP1;ratioP1;P1;durP2;ratioP2;P2;SDS_P1;SDS_P2;PMS_P1;PMS_P2;Temp;Humidity;BMP_temperature;BMP_pressure;BME280_temperature;BME280_humidity;BME280_pressure;Samples;Min_cycle;Max_cycle;Signal;HPM_P1;HPM_P2
2023/05/26 00:00:21;;;;;;;11.90;7.17;;;;;;;;;;6339011;28;20187;-61
2023/05/26 00:03:22;;;;;;;8.10;7.30;;;;;;;;;;6320982;28;20330;-61
2023/05/26 00:06:23;;;;;;;9.60;6.93;;;;;;;;;;6331997;28;20283;-61
2023/05/26 00:09:24;;;;;;;7.50;6.70;;;;;;;;;;6336785;27;20314;-61
2023/05/26 00:12:25;;;;;;;7.87;7.07;;;;;;;;;;6316947;28;20279;-61
2023/05/26 00:15:26;;;;;;;10.30;6.97;;;;;;;;;;6333370;28;20283;-61
2023/05/26 00:18:27;;;;;;;10.87;7.93;;;;;;;;;;6341013;28;20192;-61
2023/05/26 00:21:28;;;;;;;7.47;6.87;;;;;;;;;;6327044;28;20209;-61
2023/05/26 00:24:29;;;;;;;9.07;6.50;;;;;;;;;;6319857;28;20240;-61
2023/05/26 00:27:30;;;;;;;8.00;7.20;;;;;;;;;;6321609;28;20223;-61
2023/05/26 00:30:31;;;;;;;6.67;6.07;;;;;;;;;;6314307;28;20302;-61
2023/05/26 00:33:32;;;;;;;7.07;6.37;;;;;;;;;;6327513;27;20270;-61
2023/05/26 00:36:33;;;;;;;10.00;6.80;;;;;;;;;;6361276;27;20247;-61
2023/05/26 00:39:35;;;;;;;7.93;7.13;;;;;;;;;;6316106;28;20194;-61
2023/05/26 00:42:37;;;;;;;7.53;6.83;;;;;;;;;;6339770;27;20183;-61
2023/05/26 00:45:38;;;;;;;8.70;6.50;;;;;;;;;;6348225;27;20232;-61
2023/05/26 00:48:39;;;;;;;8.93;6.93;;;;;;;;;;6321979;27;20184;-61
2023/05/26 00:51:41;;;;;;;9.43;6.90;;;;;;;;;;6324784;27;20219;-61
2023/05/26 00:54:42;;;;;;;7.47;6.60;;;;;;;;;;6351244;27;20213;-61
2023/05/26 00:57:44;;;;;;;8.77;6.93;;;;;;;;;;6336451;27;20207;-61
2023/05/26 01:00:45;;;;;;;7.27;6.63;;;;;;;;;;6349064;27;20180;-61
2023/05/26 01:03:47;;;;;;;12.47;7.57;;;;;;;;;;6346309;27;20186;-61
2023/05/26 01:06:49;;;;;;;8.70;7.37;;;;;;;;;;6347786;27;20184;-61
2023/05/26 01:09:51;;;;;;;8.47;6.73;;;;;;;;;;6345534;27;20209;-61
2023/05/26 01:13:13;;;;;;;9.20;7.03;;;;;;;;;;6336226;27;20234;-61
2023/05/26 01:16:17;;;;;;;7.10;6.40;;;;;;;;;;6340418;27;20187;-61
2023/05/26 01:19:34;;;;;;;7.87;7.03;;;;;;;;;;6333219;27;20202;-61
2023/05/26 01:22:35;;;;;;;7.77;6.73;;;;;;;;;;6331982;27;20203;-61
2023/05/26 01:25:47;;;;;;;8.33;7.17;;;;;;;;;;6339136;27;20194;-61
2023/05/26 01:28:51;;;;;;;10.23;8.33;;;;;;;;;;6334950;27;20236;-61
2023/05/26 01:31:52;;;;;;;8.27;7.37;;;;;;;;;;6353496;27;20207;-61
2023/05/26 01:34:53;;;;;;;7.83;7.03;;;;;;;;;;6330436;27;20241;-61
2023/05/26 01:37:55;;;;;;;9.87;7.30;;;;;;;;;;6328135;27;20236;-61
2023/05/26 01:41:06;;;;;;;10.77;7.30;;;;;;;;;;6351709;27;20192;-61
2023/05/26 01:44:17;;;;;;;8.03;7.23;;;;;;;;;;6350328;27;20196;-61
2023/05/26 01:47:18;;;;;;;7.97;7.17;;;;;;;;;;6338256;27;20195;-61
2023/05/26 01:50:22;;;;;;;8.03;7.33;;;;;;;;;;6348071;27;20198;-61
2023/05/26 01:53:34;;;;;;;9.07;7.53;;;;;;;;;;6335742;27;20183;-61
2023/05/26 01:56:35;;;;;;;9.60;7.47;;;;;;;;;;6348761;27;20184;-61
2023/05/26 01:59:38;;;;;;;9.10;7.50;;;;;;;;;;6352465;27;20193;-61
2023/05/26 02:02:39;;;;;;;11.10;7.67;;;;;;;;;;6326042;28;20210;-61
2023/05/26 02:05:40;;;;;;;8.13;7.40;;;;;;;;;;6319238;27;20207;-61
2023/05/26 02:08:41;;;;;;;8.10;7.30;;;;;;;;;;6314535;28;20204;-61
2023/05/26 02:11:43;;;;;;;10.47;7.60;;;;;;;;;;6319199;28;20218;-61
2023/05/26 02:14:44;;;;;;;8.83;7.93;;;;;;;;;;6327415;28;20267;-61
2023/05/26 02:17:47;;;;;;;9.13;7.60;;;;;;;;;;6331646;27;20218;-61
2023/05/26 02:20:48;;;;;;;8.37;7.50;;;;;;;;;;6321245;28;20191;-61
2023/05/26 02:23:49;;;;;;;12.77;7.77;;;;;;;;;;6340608;28;20226;-61
2023/05/26 02:26:50;;;;;;;9.90;8.60;;;;;;;;;;6334478;28;20282;-61
2023/05/26 02:29:51;;;;;;;8.67;7.87;;;;;;;;;;6325203;27;20330;-61
2023/05/26 02:32:52;;;;;;;8.17;7.40;;;;;;;;;;6348612;27;20222;-61
2023/05/26 02:35:53;;;;;;;8.67;7.83;;;;;;;;;;6319564;27;20191;-61
2023/05/26 02:38:55;;;;;;;9.93;7.87;;;;;;;;;;6324921;28;20191;-61
2023/05/26 02:41:56;;;;;;;9.27;7.87;;;;;;;;;;6337369;27;20196;-61
2023/05/26 02:44:57;;;;;;;9.03;7.87;;;;;;;;;;6330736;28;20195;-61
2023/05/26 02:47:58;;;;;;;9.80;8.00;;;;;;;;;;6341247;27;20295;-61
2023/05/26 02:50:59;;;;;;;9.87;8.37;;;;;;;;;;6337125;27;20277;-61
2023/05/26 02:54:00;;;;;;;11.80;8.17;;;;;;;;;;6327346;27;20192;-61
2023/05/26 02:57:01;;;;;;;15.40;8.17;;;;;;;;;;6320518;27;20193;-61
2023/05/26 03:00:02;;;;;;;8.83;8.03;;;;;;;;;;6324461;28;20188;-61
2023/05/26 03:03:03;;;;;;;8.67;7.77;;;;;;;;;;6347658;27;20198;-61
2023/05/26 03:06:04;;;;;;;9.87;8.00;;;;;;;;;;6336316;27;20215;-61
2023/05/26 03:09:05;;;;;;;9.03;8.30;;;;;;;;;;6323789;28;20279;-61
2023/05/26 03:12:06;;;;;;;10.37;8.17;;;;;;;;;;6332555;27;20214;-61
2023/05/26 03:15:08;;;;;;;9.17;7.97;;;;;;;;;;6350097;27;20218;-61
2023/05/26 03:18:09;;;;;;;8.83;7.93;;;;;;;;;;6346749;27;20202;-61
2023/05/26 03:21:10;;;;;;;9.73;8.27;;;;;;;;;;6327704;27;20191;-61
2023/05/26 03:24:11;;;;;;;8.87;7.97;;;;;;;;;;6335702;27;20204;-61
2023/05/26 03:27:13;;;;;;;8.97;7.77;;;;;;;;;;6350795;27;20183;-61
2023/05/26 03:30:14;;;;;;;9.60;8.10;;;;;;;;;;6326459;28;20239;-61
2023/05/26 03:33:15;;;;;;;9.20;8.30;;;;;;;;;;6322975;27;20198;-61
2023/05/26 03:36:16;;;;;;;8.90;8.00;;;;;;;;;;6339402;27;20219;-61
2023/05/26 03:39:17;;;;;;;8.63;7.70;;;;;;;;;;6324550;28;20195;-61
2023/05/26 03:42:18;;;;;;;7.97;7.27;;;;;;;;;;6316835;28;20199;-61
2023/05/26 03:45:19;;;;;;;9.43;7.70;;;;;;;;;;6339675;28;20203;-61
2023/05/26 03:48:20;;;;;;;8.67;7.37;;;;;;;;;;6322152;28;20227;-61
2023/05/26 03:51:21;;;;;;;11.10;8.03;;;;;;;;;;6326769;27;20276;-61
2023/05/26 03:54:22;;;;;;;11.03;8.57;;;;;;;;;;6328449;28;20197;-61
2023/05/26 03:57:23;;;;;;;9.10;8.17;;;;;;;;;;6324548;28;20259;-61
2023/05/26 04:00:28;;;;;;;9.20;8.03;;;;;;;;;;6322704;28;20196;-61
2023/05/26 04:03:29;;;;;;;9.00;8.13;;;;;;;;;;6320443;28;20196;-61
2023/05/26 04:06:30;;;;;;;9.87;8.50;;;;;;;;;;6319020;28;20262;-61
2023/05/26 04:09:32;;;;;;;8.90;8.00;;;;;;;;;;6312258;28;20188;-61
2023/05/26 04:12:33;;;;;;;8.43;7.53;;;;;;;;;;6346252;27;20689;-61
2023/05/26 04:15:34;;;;;;;9.17;7.80;;;;;;;;;;6340234;27;20186;-61
2023/05/26 04:18:40;;;;;;;12.17;8.30;;;;;;;;;;6327208;27;20192;-61
2023/05/26 04:21:41;;;;;;;10.07;8.10;;;;;;;;;;6328372;27;20229;-60
2023/05/26 04:24:42;;;;;;;9.83;7.80;;;;;;;;;;6308697;28;20192;-61
2023/05/26 04:27:44;;;;;;;9.60;7.70;;;;;;;;;;6324267;27;20195;-60
2023/05/26 04:30:45;;;;;;;8.83;7.67;;;;;;;;;;6335203;28;20295;-60
2023/05/26 04:33:46;;;;;;;11.17;8.40;;;;;;;;;;6337433;27;20199;-60
2023/05/26 04:36:48;;;;;;;8.17;7.37;;;;;;;;;;6341107;27;20190;-60
2023/05/26 04:39:49;;;;;;;8.10;7.30;;;;;;;;;;6320395;27;20237;-60
2023/05/26 04:42:50;;;;;;;10.07;8.00;;;;;;;;;;6329459;27;20195;-60
2023/05/26 04:45:51;;;;;;;9.07;7.30;;;;;;;;;;6344543;27;20194;-60
2023/05/26 04:48:55;;;;;;;9.27;8.03;;;;;;;;;;6340061;27;20202;-61
2023/05/26 04:51:58;;;;;;;8.83;7.50;;;;;;;;;;6339086;27;20236;-61
2023/05/26 04:54:59;;;;;;;9.00;8.10;;;;;;;;;;6349427;27;20187;-61
2023/05/26 04:58:00;;;;;;;8.00;7.30;;;;;;;;;;6342691;27;20191;-60
2023/05/26 05:01:02;;;;;;;9.40;7.47;;;;;;;;;;6351878;27;20228;-60
2023/05/26 05:04:04;;;;;;;8.87;7.97;;;;;;;;;;6341132;27;20192;-60
2023/05/26 05:07:05;;;;;;;8.93;7.87;;;;;;;;;;6321760;28;20219;-61
2023/05/26 05:10:06;;;;;;;10.90;7.87;;;;;;;;;;6326317;27;20211;-60
2023/05/26 05:13:07;;;;;;;8.77;7.87;;;;;;;;;;6316141;27;20216;-61
2023/05/26 05:16:08;;;;;;;8.57;7.77;;;;;;;;;;6329163;28;20206;-61
2023/05/26 05:19:09;;;;;;;12.63;7.90;;;;;;;;;;6343367;27;20181;-61
2023/05/26 05:22:12;;;;;;;9.07;7.67;;;;;;;;;;6333417;27;20190;-60
2023/05/26 05:25:13;;;;;;;14.27;8.00;;;;;;;;;;6333063;28;20201;-61
2023/05/26 05:28:15;;;;;;;9.83;7.77;;;;;;;;;;6330329;27;20243;-61
2023/05/26 05:31:16;;;;;;;7.87;7.13;;;;;;;;;;6327755;27;20231;-61
2023/05/26 05:34:18;;;;;;;9.43;8.17;;;;;;;;;;6329483;27;20207;-60
2023/05/26 05:37:19;;;;;;;8.23;7.43;;;;;;;;;;6324366;27;20186;-60
2023/05/26 05:40:20;;;;;;;8.27;7.50;;;;;;;;;;6327791;27;20235;-61
2023/05/26 05:43:21;;;;;;;8.40;7.60;;;;;;;;;;6343947;27;20178;-61
2023/05/26 05:46:26;;;;;;;9.33;7.77;;;;;;;;;;6353665;27;20279;-61
2023/05/26 05:49:27;;;;;;;11.17;8.20;;;;;;;;;;6343638;27;20184;-61
2023/05/26 05:52:28;;;;;;;9.40;7.40;;;;;;;;;;6331912;28;20207;-61
2023/05/26 05:55:29;;;;;;;9.27;7.43;;;;;;;;;;6324296;27;20234;-61
2023/05/26 05:58:30;;;;;;;8.23;7.53;;;;;;;;;;6338254;28;20283;-61
2023/05/26 06:01:31;;;;;;;8.10;7.30;;;;;;;;;;6326386;28;20301;-61
2023/05/26 06:04:32;;;;;;;9.17;7.77;;;;;;;;;;6327501;28;20565;-60
2023/05/26 06:07:34;;;;;;;10.03;7.83;;;;;;;;;;6331786;28;20187;-61
2023/05/26 06:10:35;;;;;;;10.73;7.90;;;;;;;;;;6349297;27;20224;-61
2023/05/26 06:13:36;;;;;;;8.93;6.83;;;;;;;;;;6344487;28;20282;-61
2023/05/26 06:16:37;;;;;;;7.03;6.33;;;;;;;;;;6335368;27;20190;-61
2023/05/26 06:19:38;;;;;;;7.90;6.23;;;;;;;;;;6337286;27;20179;-61
2023/05/26 06:22:40;;;;;;;7.37;6.07;;;;;;;;;;6356952;27;20183;-61
2023/05/26 06:25:41;;;;;;;8.63;5.63;;;;;;;;;;6332039;27;20190;-61
2023/05/26 06:28:42;;;;;;;7.43;5.40;;;;;;;;;;6331693;27;20289;-61
2023/05/26 06:31:43;;;;;;;5.57;5.00;;;;;;;;;;6330661;27;20225;-61
2023/05/26 06:34:44;;;;;;;9.73;5.43;;;;;;;;;;6340207;27;20287;-61
2023/05/26 06:37:45;;;;;;;7.03;5.70;;;;;;;;;;6334104;28;20190;-61
2023/05/26 06:40:46;;;;;;;6.03;5.50;;;;;;;;;;6334493;27;20188;-61
2023/05/26 06:43:47;;;;;;;8.47;5.77;;;;;;;;;;6344758;27;20179;-61
2023/05/26 06:46:48;;;;;;;6.47;5.67;;;;;;;;;;6320335;27;20202;-61
2023/05/26 06:49:50;;;;;;;7.43;5.80;;;;;;;;;;6349414;28;20187;-61
2023/05/26 06:52:51;;;;;;;7.50;5.87;;;;;;;;;;6347186;27;20210;-61
2023/05/26 06:55:52;;;;;;;6.87;5.17;;;;;;;;;;6332190;28;20195;-61
2023/05/26 06:58:53;;;;;;;6.07;5.30;;;;;;;;;;6326573;27;20179;-61
2023/05/26 07:01:54;;;;;;;6.37;4.90;;;;;;;;;;6329887;27;20184;-61
2023/05/26 07:04:55;;;;;;;10.70;5.40;;;;;;;;;;6333958;27;20271;-61
2023/05/26 07:07:56;;;;;;;7.57;5.03;;;;;;;;;;6322787;28;20196;-61
2023/05/26 07:10:57;;;;;;;5.90;4.90;;;;;;;;;;6342848;27;20210;-61
2023/05/26 07:13:58;;;;;;;5.80;5.20;;;;;;;;;;6349059;27;20187;-62
2023/05/26 07:16:59;;;;;;;6.47;5.73;;;;;;;;;;6331461;27;20180;-61
2023/05/26 07:20:00;;;;;;;6.23;4.83;;;;;;;;;;6338206;27;20184;-61
2023/05/26 07:23:02;;;;;;;5.70;5.20;;;;;;;;;;6332894;27;20202;-61
2023/05/26 07:26:03;;;;;;;5.57;4.97;;;;;;;;;;6330398;27;20183;-61
2023/05/26 07:29:04;;;;;;;7.23;5.37;;;;;;;;;;6333675;27;20250;-61
2023/05/26 07:32:05;;;;;;;9.37;5.43;;;;;;;;;;6318823;28;20233;-61
2023/05/26 07:35:06;;;;;;;6.03;5.17;;;;;;;;;;6348596;27;20250;-61
2023/05/26 07:38:07;;;;;;;7.10;5.37;;;;;;;;;;6322857;27;20184;-61
2023/05/26 07:41:09;;;;;;;6.60;4.90;;;;;;;;;;6331878;27;20182;-61
2023/05/26 07:44:10;;;;;;;6.60;4.77;;;;;;;;;;6335341;27;20187;-61
2023/05/26 07:47:11;;;;;;;7.90;5.23;;;;;;;;;;6338451;27;20187;-61
2023/05/26 07:50:12;;;;;;;7.60;5.17;;;;;;;;;;6335469;28;20184;-61
2023/05/26 07:53:13;;;;;;;7.67;4.97;;;;;;;;;;6336613;27;20208;-61
2023/05/26 07:56:14;;;;;;;6.43;5.43;;;;;;;;;;6336053;27;20426;-61
2023/05/26 07:59:16;;;;;;;7.83;5.00;;;;;;;;;;6335821;27;20186;-61
2023/05/26 08:02:17;;;;;;;5.93;5.33;;;;;;;;;;6341490;27;20274;-61
2023/05/26 08:05:18;;;;;;;6.50;4.50;;;;;;;;;;6343199;27;20566;-61
2023/05/26 08:08:19;;;;;;;5.93;5.30;;;;;;;;;;6331068;27;20200;-61
2023/05/26 08:11:23;;;;;;;6.97;4.90;;;;;;;;;;6330218;27;20218;-61
2023/05/26 08:14:26;;;;;;;8.97;5.77;;;;;;;;;;6332852;28;20195;-61
2023/05/26 08:17:27;;;;;;;6.33;5.10;;;;;;;;;;6314986;27;20206;-61
2023/05/26 08:20:28;;;;;;;6.30;5.13;;;;;;;;;;6322360;28;20252;-61
2023/05/26 08:23:29;;;;;;;5.47;4.97;;;;;;;;;;6326665;28;20191;-61
2023/05/26 08:26:30;;;;;;;5.07;4.63;;;;;;;;;;6329990;27;20184;-61
2023/05/26 08:29:32;;;;;;;5.20;4.70;;;;;;;;;;6328152;27;20234;-61
2023/05/26 08:32:34;;;;;;;5.93;5.13;;;;;;;;;;6320955;28;20218;-61
2023/05/26 08:35:35;;;;;;;5.53;5.03;;;;;;;;;;6356433;27;20235;-61
2023/05/26 08:38:36;;;;;;;7.67;5.03;;;;;;;;;;6324646;27;20186;-61
2023/05/26 08:41:42;;;;;;;6.13;5.53;;;;;;;;;;6345742;27;20290;-61
2023/05/26 08:44:46;;;;;;;5.87;5.27;;;;;;;;;;6360364;27;20197;-61
2023/05/26 08:47:48;;;;;;;5.93;5.30;;;;;;;;;;6343417;27;20197;-61
2023/05/26 08:50:51;;;;;;;5.63;5.03;;;;;;;;;;6338122;27;20300;-61
2023/05/26 08:53:53;;;;;;;5.00;4.60;;;;;;;;;;6349707;27;20989;-61
2023/05/26 08:56:54;;;;;;;5.93;5.33;;;;;;;;;;6329556;27;20187;-61
2023/05/26 08:59:56;;;;;;;5.40;4.90;;;;;;;;;;6329713;28;20190;-60
2023/05/26 09:02:57;;;;;;;6.43;5.23;;;;;;;;;;6323806;27;20195;-61
2023/05/26 09:05:58;;;;;;;5.80;5.20;;;;;;;;;;6322716;27;20221;-60
2023/05/26 09:08:59;;;;;;;4.77;4.30;;;;;;;;;;6326900;27;20196;-60
2023/05/26 09:12:00;;;;;;;5.93;5.33;;;;;;;;;;6317445;27;20206;-61
2023/05/26 09:15:01;;;;;;;5.83;4.90;;;;;;;;;;6326009;27;20188;-61
2023/05/26 09:18:03;;;;;;;5.60;5.03;;;;;;;;;;6319070;27;20182;-61
2023/05/26 09:21:04;;;;;;;6.83;5.43;;;;;;;;;;6330253;27;20187;-61
2023/05/26 09:24:05;;;;;;;5.57;5.07;;;;;;;;;;6330327;28;20187;-61
2023/05/26 09:27:15;;;;;;;5.43;4.93;;;;;;;;;;6324172;27;20207;-61
2023/05/26 09:30:16;;;;;;;5.20;4.70;;;;;;;;;;6331477;27;20319;-61
2023/05/26 09:33:19;;;;;;;9.33;5.70;;;;;;;;;;6321283;28;20207;-61
2023/05/26 09:36:23;;;;;;;14.97;5.60;;;;;;;;;;6325230;27;20188;-62
2023/05/26 09:39:32;;;;;;;5.20;4.70;;;;;;;;;;6332262;27;20183;-62
2023/05/26 09:42:33;;;;;;;6.23;5.53;;;;;;;;;;6341814;27;20188;-62
2023/05/26 09:45:35;;;;;;;5.63;5.07;;;;;;;;;;6325017;27;20188;-62
2023/05/26 09:48:36;;;;;;;6.00;4.97;;;;;;;;;;6319396;27;20192;-62
2023/05/26 09:51:38;;;;;;;7.17;5.00;;;;;;;;;;6321901;27;20211;-62
2023/05/26 09:54:39;;;;;;;9.03;5.47;;;;;;;;;;6318859;28;20194;-61
2023/05/26 09:57:40;;;;;;;5.97;5.43;;;;;;;;;;6334486;27;20188;-61
2023/05/26 10:00:42;;;;;;;6.83;5.47;;;;;;;;;;6327530;27;20259;-62
2023/05/26 10:03:44;;;;;;;6.83;5.40;;;;;;;;;;6332925;28;20257;-63
2023/05/26 10:06:46;;;;;;;6.37;5.00;;;;;;;;;;6331521;28;20214;-61
2023/05/26 10:09:59;;;;;;;5.63;5.13;;;;;;;;;;6340328;28;20215;-61
2023/05/26 10:13:02;;;;;;;6.27;5.20;;;;;;;;;;6341018;28;20200;-62
2023/05/26 10:16:03;;;;;;;5.80;5.30;;;;;;;;;;6344188;28;20184;-62
2023/05/26 10:19:05;;;;;;;7.03;5.07;;;;;;;;;;6326817;27;20221;-63
2023/05/26 10:22:12;;;;;;;5.57;4.90;;;;;;;;;;6324175;28;20211;-62
2023/05/26 10:25:25;;;;;;;5.37;4.87;;;;;;;;;;6349014;27;20206;-63
2023/05/26 10:28:45;;;;;;;6.03;4.80;;;;;;;;;;6345818;28;20231;-63
2023/05/26 10:31:46;;;;;;;5.47;4.97;;;;;;;;;;6336406;28;20330;-61
2023/05/26 10:34:49;;;;;;;5.57;4.70;;;;;;;;;;6319866;27;20191;-62
2023/05/26 10:37:50;;;;;;;5.90;4.97;;;;;;;;;;6338009;28;20191;-62
2023/05/26 10:40:52;;;;;;;5.33;4.83;;;;;;;;;;6348671;27;20225;-63
2023/05/26 10:43:53;;;;;;;4.87;4.47;;;;;;;;;;6323565;28;20279;-63
2023/05/26 10:47:07;;;;;;;7.33;4.70;;;;;;;;;;6341666;27;20297;-62
2023/05/26 10:50:08;;;;;;;6.27;5.33;;;;;;;;;;6336892;28;20188;-64
2023/05/26 10:53:19;;;;;;;4.93;4.50;;;;;;;;;;6327250;28;20208;-62
2023/05/26 10:56:25;;;;;;;5.57;4.80;;;;;;;;;;6338948;28;20215;-64
2023/05/26 10:59:33;;;;;;;5.67;4.87;;;;;;;;;;6344838;27;20192;-67
2023/05/26 11:02:37;;;;;;;5.73;5.03;;;;;;;;;;6358723;27;20202;-61
2023/05/26 11:05:38;;;;;;;5.97;5.30;;;;;;;;;;6341583;27;20197;-61
2023/05/26 11:08:49;;;;;;;5.10;4.60;;;;;;;;;;6336365;27;20236;-64
2023/05/26 11:11:54;;;;;;;5.73;4.83;;;;;;;;;;6350433;27;20215;-61
2023/05/26 11:14:55;;;;;;;5.37;4.87;;;;;;;;;;6342504;28;20259;-66
2023/05/26 11:17:57;;;;;;;5.67;4.50;;;;;;;;;;6326605;27;20206;-62
2023/05/26 11:20:58;;;;;;;5.83;5.20;;;;;;;;;;6355441;27;20182;-62
2023/05/26 11:24:00;;;;;;;6.40;5.00;;;;;;;;;;6321829;28;20191;-63
2023/05/26 11:27:05;;;;;;;5.47;4.97;;;;;;;;;;6350370;27;20266;-63
2023/05/26 11:30:06;;;;;;;6.77;5.63;;;;;;;;;;6331791;27;20232;-62
2023/05/26 11:33:15;;;;;;;5.80;5.03;;;;;;;;;;6320268;27;20215;-62
2023/05/26 11:36:17;;;;;;;5.63;5.13;;;;;;;;;;6319649;27;20264;-61
2023/05/26 11:39:18;;;;;;;6.93;5.57;;;;;;;;;;6318141;27;20195;-62
2023/05/26 11:42:19;;;;;;;6.80;6.20;;;;;;;;;;6346268;27;20191;-61
2023/05/26 11:45:21;;;;;;;5.93;5.23;;;;;;;;;;6323060;28;20256;-60
2023/05/26 11:48:22;;;;;;;6.10;5.50;;;;;;;;;;6354000;27;20210;-59
2023/05/26 11:51:24;;;;;;;5.70;5.20;;;;;;;;;;6334697;27;20272;-60
2023/05/26 11:54:25;;;;;;;7.23;5.73;;;;;;;;;;6322641;27;20188;-60
2023/05/26 11:57:31;;;;;;;5.53;5.00;;;;;;;;;;6351895;27;20188;-60
2023/05/26 12:00:38;;;;;;;7.67;4.97;;;;;;;;;;6337915;27;20187;-60
2023/05/26 12:03:40;;;;;;;7.07;5.20;;;;;;;;;;6358079;27;20188;-60
2023/05/26 12:06:45;;;;;;;6.70;5.30;;;;;;;;;;6335877;27;20194;-60
2023/05/26 12:09:46;;;;;;;5.77;5.17;;;;;;;;;;6336651;27;20187;-60
2023/05/26 12:12:51;;;;;;;5.33;4.83;;;;;;;;;;6334340;27;20235;-60
2023/05/26 12:15:52;;;;;;;4.80;4.40;;;;;;;;;;6334965;27;20275;-60
2023/05/26 12:18:54;;;;;;;5.45;5.03;;;;;;;;;;6341843;28;20195;-60
2023/05/26 12:21:56;;;;;;;6.20;5.22;;;;;;;;;;6342817;27;20192;-61
2023/05/26 12:25:00;;;;;;;5.65;5.13;;;;;;;;;;6345462;27;20175;-62
2023/05/26 12:28:01;;;;;;;6.47;5.25;;;;;;;;;;6349238;27;20212;-61
2023/05/26 12:31:02;;;;;;;5.13;4.67;;;;;;;;;;6333268;27;20214;-61
2023/05/26 12:34:03;;;;;;;6.43;5.00;;;;;;;;;;6353724;27;20189;-61
2023/05/26 12:37:04;;;;;;;5.57;5.03;;;;;;;;;;6331424;27;20199;-61
2023/05/26 12:40:06;;;;;;;7.53;5.57;;;;;;;;;;6345933;27;20266;-60
2023/05/26 12:43:07;;;;;;;5.93;5.30;;;;;;;;;;6323217;27;20282;-61
2023/05/26 12:46:08;;;;;;;6.70;4.73;;;;;;;;;;6325644;27;20191;-61
2023/05/26 12:49:10;;;;;;;6.23;5.03;;;;;;;;;;6322701;27;20188;-61
2023/05/26 12:52:11;;;;;;;6.00;5.40;;;;;;;;;;6340847;27;20214;-60
2023/05/26 12:55:12;;;;;;;7.60;5.43;;;;;;;;;;6323061;28;20196;-61
2023/05/26 12:58:13;;;;;;;8.30;5.63;;;;;;;;;;6340417;27;20211;-61
2023/05/26 13:01:14;;;;;;;6.73;5.33;;;;;;;;;;6334544;27;20196;-61
2023/05/26 13:04:15;;;;;;;5.93;5.33;;;;;;;;;;6332081;27;20198;-60
2023/05/26 13:07:17;;;;;;;5.97;5.33;;;;;;;;;;6328260;28;20192;-60
2023/05/26 13:10:18;;;;;;;7.00;5.67;;;;;;;;;;6320914;27;20233;-61
2023/05/26 13:13:19;;;;;;;5.97;5.37;;;;;;;;;;6338087;27;20212;-60
2023/05/26 13:16:20;;;;;;;8.63;5.80;;;;;;;;;;6321905;27;20231;-60
2023/05/26 13:19:21;;;;;;;7.47;5.60;;;;;;;;;;6335650;27;20187;-60
2023/05/26 13:22:22;;;;;;;6.27;5.30;;;;;;;;;;6327482;28;20226;-60
2023/05/26 13:25:23;;;;;;;6.30;5.70;;;;;;;;;;6324515;27;20187;-60
2023/05/26 13:28:24;;;;;;;6.10;5.33;;;;;;;;;;6351251;27;20258;-61
2023/05/26 13:31:25;;;;;;;5.97;4.83;;;;;;;;;;6325995;27;20215;-61
2023/05/26 13:34:26;;;;;;;6.00;5.43;;;;;;;;;;6324227;28;20195;-61
2023/05/26 13:37:27;;;;;;;6.50;5.17;;;;;;;;;;6332607;27;20191;-62
2023/05/26 13:40:28;;;;;;;5.37;4.87;;;;;;;;;;6329259;27;20186;-61
2023/05/26 13:43:29;;;;;;;7.17;5.77;;;;;;;;;;6333564;27;20199;-61
2023/05/26 13:46:30;;;;;;;9.23;6.17;;;;;;;;;;6340897;27;20214;-61
2023/05/26 13:49:31;;;;;;;6.80;6.07;;;;;;;;;;6344093;27;20215;-61
2023/05/26 13:52:32;;;;;;;6.40;5.87;;;;;;;;;;6330261;27;20230;-61
2023/05/26 13:55:34;;;;;;;8.47;5.80;;;;;;;;;;6326398;28;20232;-61
2023/05/26 13:58:35;;;;;;;8.53;5.77;;;;;;;;;;6353831;27;20269;-61
2023/05/26 14:01:36;;;;;;;6.30;5.70;;;;;;;;;;6314577;28;20191;-61
2023/05/26 14:04:37;;;;;;;8.07;5.97;;;;;;;;;;6343654;28;20225;-62
2023/05/26 14:07:38;;;;;;;7.40;5.43;;;;;;;;;;6333894;28;20266;-61
2023/05/26 14:10:39;;;;;;;7.27;5.60;;;;;;;;;;6314905;28;20192;-61
2023/05/26 14:13:40;;;;;;;7.87;5.63;;;;;;;;;;6327590;28;20187;-61
2023/05/26 14:16:42;;;;;;;7.77;6.23;;;;;;;;;;6329249;28;20183;-62
2023/05/26 14:19:43;;;;;;;6.90;6.17;;;;;;;;;;6329624;27;20243;-62
2023/05/26 14:22:44;;;;;;;6.77;5.93;;;;;;;;;;6328097;27;20186;-61
2023/05/26 14:25:45;;;;;;;6.33;5.63;;;;;;;;;;6338504;27;20203;-61
2023/05/26 14:28:47;;;;;;;7.07;6.37;;;;;;;;;;6327747;28;20238;-61
2023/05/26 14:31:48;;;;;;;7.93;6.20;;;;;;;;;;6329406;28;20207;-61
2023/05/26 14:34:49;;;;;;;6.20;5.60;;;;;;;;;;6347249;28;20179;-61
2023/05/26 14:37:50;;;;;;;6.93;6.03;;;;;;;;;;6320778;28;20194;-61
2023/05/26 14:40:51;;;;;;;6.00;5.50;;;;;;;;;;6337534;28;20644;-62
2023/05/26 14:43:52;;;;;;;6.47;5.90;;;;;;;;;;6315470;28;20239;-62
2023/05/26 14:46:53;;;;;;;7.47;6.33;;;;;;;;;;6320684;27;20185;-62
2023/05/26 14:49:57;;;;;;;6.20;5.70;;;;;;;;;;6322020;28;20189;-62
2023/05/26 14:52:58;;;;;;;6.07;5.57;;;;;;;;;;6310888;28;20212;-62
2023/05/26 14:55:59;;;;;;;7.37;5.87;;;;;;;;;;6310085;28;20218;-62
2023/05/26 14:59:00;;;;;;;7.10;6.40;;;;;;;;;;6333285;28;20184;-62
2023/05/26 15:02:01;;;;;;;7.67;6.40;;;;;;;;;;6335827;27;20191;-61
2023/05/26 15:05:02;;;;;;;7.27;5.97;;;;;;;;;;6318644;28;20195;-61
2023/05/26 15:08:03;;;;;;;6.73;6.13;;;;;;;;;;6327644;28;20194;-62
2023/05/26 15:11:05;;;;;;;7.50;6.43;;;;;;;;;;6310696;28;20211;-61
2023/05/26 15:14:07;;;;;;;6.20;5.60;;;;;;;;;;6347959;28;20190;-61
2023/05/26 15:17:08;;;;;;;6.83;6.10;;;;;;;;;;6332249;28;20180;-61
2023/05/26 15:20:09;;;;;;;6.80;6.20;;;;;;;;;;6321546;28;20188;-61
2023/05/26 15:23:10;;;;;;;7.10;6.20;;;;;;;;;;6339893;28;20226;-61
2023/05/26 15:26:11;;;;;;;7.90;6.23;;;;;;;;;;6323673;28;20196;-61
2023/05/26 15:29:14;;;;;;;7.83;6.63;;;;;;;;;;6336620;27;20235;-61
2023/05/26 15:32:15;;;;;;;6.77;5.87;;;;;;;;;;6323003;28;20369;-61
2023/05/26 15:35:17;;;;;;;6.53;5.87;;;;;;;;;;6318660;28;20187;-61
2023/05/26 15:38:18;;;;;;;7.07;6.37;;;;;;;;;;6323128;28;20195;-61
2023/05/26 15:41:20;;;;;;;10.43;6.53;;;;;;;;;;6326637;28;20187;-62
2023/05/26 15:44:21;;;;;;;6.73;6.03;;;;;;;;;;6311984;28;20191;-62
2023/05/26 15:47:22;;;;;;;7.43;6.63;;;;;;;;;;6331515;28;20191;-62
2023/05/26 15:50:23;;;;;;;6.50;5.90;;;;;;;;;;6311600;28;20196;-61
2023/05/26 15:53:24;;;;;;;6.70;6.07;;;;;;;;;;6350039;28;20207;-61
2023/05/26 15:56:26;;;;;;;6.43;5.83;;;;;;;;;;6332475;28;20190;-62
2023/05/26 15:59:27;;;;;;;7.47;6.27;;;;;;;;;;6320189;28;20179;-63
2023/05/26 16:02:28;;;;;;;6.60;6.00;;;;;;;;;;6318442;28;20180;-61
2023/05/26 16:05:29;;;;;;;6.73;6.03;;;;;;;;;;6334475;27;20191;-63
2023/05/26 16:08:30;;;;;;;9.53;6.60;;;;;;;;;;6314454;27;20193;-62
2023/05/26 16:11:31;;;;;;;8.03;6.60;;;;;;;;;;6330622;28;20208;-63
2023/05/26 16:14:32;;;;;;;7.53;6.33;;;;;;;;;;6325922;28;20180;-63
2023/05/26 16:17:34;;;;;;;8.57;6.37;;;;;;;;;;6318635;28;20279;-63
2023/05/26 16:20:35;;;;;;;7.17;6.37;;;;;;;;;;6317970;28;20184;-62
2023/05/26 16:23:36;;;;;;;7.93;6.53;;;;;;;;;;6329781;28;20195;-64
2023/05/26 16:26:37;;;;;;;6.73;6.10;;;;;;;;;;6314174;28;20196;-64
2023/05/26 16:29:38;;;;;;;5.63;5.03;;;;;;;;;;6330719;28;20240;-64
2023/05/26 16:32:41;;;;;;;5.30;4.27;;;;;;;;;;6348616;27;20211;-63
2023/05/26 16:35:45;;;;;;;6.40;4.47;;;;;;;;;;6331119;28;20199;-64
2023/05/26 16:38:46;;;;;;;5.27;4.77;;;;;;;;;;6339092;27;20183;-63
2023/05/26 16:41:50;;;;;;;4.70;4.10;;;;;;;;;;6317084;28;20192;-63
2023/05/26 16:44:51;;;;;;;4.80;4.40;;;;;;;;;;6320119;28;20192;-63
2023/05/26 16:47:52;;;;;;;5.33;3.80;;;;;;;;;;6318966;28;20193;-61
2023/05/26 16:50:53;;;;;;;4.80;4.03;;;;;;;;;;6321783;27;20236;-61
2023/05/26 16:53:54;;;;;;;5.43;4.40;;;;;;;;;;6317712;28;20255;-62
2023/05/26 16:56:55;;;;;;;3.93;3.53;;;;;;;;;;6315579;27;20286;-62
2023/05/26 16:59:56;;;;;;;6.33;4.30;;;;;;;;;;6331288;28;20184;-62
2023/05/26 17:02:58;;;;;;;4.33;3.93;;;;;;;;;;6321297;28;20199;-62
2023/05/26 17:05:59;;;;;;;4.60;4.20;;;;;;;;;;6339444;28;20180;-62
2023/05/26 17:09:00;;;;;;;4.53;3.70;;;;;;;;;;6313613;28;20180;-62
2023/05/26 17:12:01;;;;;;;6.53;4.30;;;;;;;;;;6333939;27;20219;-62
2023/05/26 17:15:04;;;;;;;6.07;4.83;;;;;;;;;;6310967;28;20227;-63
2023/05/26 17:18:05;;;;;;;8.70;4.43;;;;;;;;;;6333738;28;20183;-60
2023/05/26 17:21:06;;;;;;;4.47;3.80;;;;;;;;;;6327799;28;20210;-62
2023/05/26 17:24:07;;;;;;;5.77;4.30;;;;;;;;;;6337453;28;20191;-61
2023/05/26 17:27:08;;;;;;;5.50;3.87;;;;;;;;;;6336930;27;20214;-61
2023/05/26 17:30:09;;;;;;;5.20;4.43;;;;;;;;;;6311947;28;20327;-61
2023/05/26 17:33:11;;;;;;;4.83;4.37;;;;;;;;;;6313991;28;20218;-66
2023/05/26 17:36:12;;;;;;;4.97;4.50;;;;;;;;;;6336906;28;20192;-63
2023/05/26 17:39:13;;;;;;;6.00;4.53;;;;;;;;;;6317618;28;20219;-63
2023/05/26 17:42:14;;;;;;;6.40;4.80;;;;;;;;;;6309461;28;20188;-64
2023/05/26 17:45:15;;;;;;;7.80;5.10;;;;;;;;;;6348208;28;20195;-63
2023/05/26 17:48:16;;;;;;;5.53;3.77;;;;;;;;;;6337944;28;20212;-63
2023/05/26 17:51:17;;;;;;;6.40;4.53;;;;;;;;;;6323753;28;20219;-61
2023/05/26 17:54:18;;;;;;;5.43;4.00;;;;;;;;;;6327408;28;20195;-62
2023/05/26 17:57:19;;;;;;;8.87;4.73;;;;;;;;;;6312318;28;20182;-61
2023/05/26 18:00:21;;;;;;;5.47;4.67;;;;;;;;;;6313915;28;20198;-61
2023/05/26 18:03:22;;;;;;;4.93;4.47;;;;;;;;;;6304459;28;20228;-61
2023/05/26 18:06:23;;;;;;;7.20;4.33;;;;;;;;;;6327620;28;20187;-61
2023/05/26 18:09:24;;;;;;;6.47;4.87;;;;;;;;;;6315312;28;20194;-62